sensor_id;sensor_type;location;lat;lon;timestamp;P1;durP1;ratioP1;P2;durP2;ratioP2
6463;SDS011;3265;42.694;23.282;2024-01-30T00:00:54;9.37;;;5.40;;
6463;SDS011;3265;42.694;23.282;2024-01-30T00:03:43;7.10;;;5.00;;
6463;SDS011;3265;42.694;23.282;2024-01-30T00:06:13;9.53;;;5.17;;
6463;SDS011;3265;42.694;23.282;2024-01-30T00:14:47;8.00;;;4.93;;
6463;SDS011;3265;42.694;23.282;2024-01-30T00:17:23;10.77;;;6.33;;
6463;SDS011;3265;42.694;23.282;2024-01-30T00:20:06;12.73;;;5.60;;
6463;SDS011;3265;42.694;23.282;2024-01-30T00:27:55;10.50;;;6.00;;
6463;SDS011;3265;42.694;23.282;2024-01-30T00:45:30;7.83;;;5.10;;
6463;SDS011;3265;42.694;23.282;2024-01-30T00:48:16;9.07;;;5.03;;
6463;SDS011;3265;42.694;23.282;2024-01-30T00:50:46;8.57;;;5.07;;
6463;SDS011;3265;42.694;23.282;2024-01-30T00:58:30;9.17;;;5.23;;
6463;SDS011;3265;42.694;23.282;2024-01-30T01:00:57;10.40;;;5.30;;
6463;SDS011;3265;42.694;23.282;2024-01-30T01:03:24;8.07;;;4.93;;
6463;SDS011;3265;42.694;23.282;2024-01-30T01:05:50;7.60;;;4.90;;
6463;SDS011;3265;42.694;23.282;2024-01-30T01:08:20;7.13;;;4.77;;
6463;SDS011;3265;42.694;23.282;2024-01-30T01:19:07;8.50;;;5.60;;
6463;SDS011;3265;42.694;23.282;2024-01-30T01:24:25;9.20;;;5.60;;
6463;SDS011;3265;42.694;23.282;2024-01-30T01:27:30;10.40;;;5.30;;
6463;SDS011;3265;42.694;23.282;2024-01-30T01:29:50;8.10;;;5.17;;
6463;SDS011;3265;42.694;23.282;2024-01-30T01:32:31;10.07;;;5.50;;
6463;SDS011;3265;42.694;23.282;2024-01-30T01:38:46;8.37;;;5.30;;
6463;SDS011;3265;42.694;23.282;2024-01-30T01:41:55;10.13;;;4.90;;
6463;SDS011;3265;42.694;23.282;2024-01-30T01:44:52;9.33;;;4.90;;
6463;SDS011;3265;42.694;23.282;2024-01-30T01:52:50;8.63;;;5.30;;
6463;SDS011;3265;42.694;23.282;2024-01-30T01:55:21;8.17;;;5.50;;
6463;SDS011;3265;42.694;23.282;2024-01-30T01:57:53;9.03;;;5.77;;
6463;SDS011;3265;42.694;23.282;2024-01-30T02:00:29;8.27;;;5.40;;
6463;SDS011;3265;42.694;23.282;2024-01-30T02:02:57;7.53;;;5.43;;
6463;SDS011;3265;42.694;23.282;2024-01-30T02:05:26;6.90;;;5.00;;
6463;SDS011;3265;42.694;23.282;2024-01-30T02:11:14;8.27;;;5.20;;
6463;SDS011;3265;42.694;23.282;2024-01-30T02:13:44;7.50;;;4.80;;
6463;SDS011;3265;42.694;23.282;2024-01-30T02:16:13;10.07;;;4.90;;
6463;SDS011;3265;42.694;23.282;2024-01-30T02:18:47;9.67;;;4.83;;
6463;SDS011;3265;42.694;23.282;2024-01-30T02:21:28;7.27;;;5.00;;
6463;SDS011;3265;42.694;23.282;2024-01-30T02:23:55;6.40;;;4.67;;
6463;SDS011;3265;42.694;23.282;2024-01-30T02:26:26;7.27;;;4.50;;
6463;SDS011;3265;42.694;23.282;2024-01-30T02:28:58;10.63;;;4.60;;
6463;SDS011;3265;42.694;23.282;2024-01-30T02:34:06;7.70;;;4.90;;
6463;SDS011;3265;42.694;23.282;2024-01-30T02:36:36;8.10;;;4.57;;
6463;SDS011;3265;42.694;23.282;2024-01-30T02:39:18;6.90;;;4.70;;
6463;SDS011;3265;42.694;23.282;2024-01-30T02:41:45;7.40;;;4.87;;
6463;SDS011;3265;42.694;23.282;2024-01-30T02:44:12;6.87;;;4.50;;
6463;SDS011;3265;42.694;23.282;2024-01-30T02:46:39;7.03;;;4.53;;
6463;SDS011;3265;42.694;23.282;2024-01-30T02:49:06;7.00;;;4.67;;
6463;SDS011;3265;42.694;23.282;2024-01-30T02:52:13;6.63;;;4.47;;
6463;SDS011;3265;42.694;23.282;2024-01-30T02:54:40;7.90;;;4.67;;
6463;SDS011;3265;42.694;23.282;2024-01-30T02:57:25;7.70;;;4.90;;
6463;SDS011;3265;42.694;23.282;2024-01-30T03:00:02;7.70;;;4.60;;
6463;SDS011;3265;42.694;23.282;2024-01-30T03:02:53;9.77;;;4.57;;
6463;SDS011;3265;42.694;23.282;2024-01-30T03:05:23;6.73;;;4.50;;
6463;SDS011;3265;42.694;23.282;2024-01-30T03:08:16;7.30;;;4.40;;
6463;SDS011;3265;42.694;23.282;2024-01-30T03:10:43;8.07;;;4.97;;
6463;SDS011;3265;42.694;23.282;2024-01-30T03:13:16;7.20;;;4.83;;
6463;SDS011;3265;42.694;23.282;2024-01-30T03:16:23;6.83;;;4.60;;
6463;SDS011;3265;42.694;23.282;2024-01-30T03:18:53;6.40;;;4.37;;
6463;SDS011;3265;42.694;23.282;2024-01-30T03:21:20;8.53;;;4.50;;
6463;SDS011;3265;42.694;23.282;2024-01-30T03:24:06;6.57;;;4.50;;
6463;SDS011;3265;42.694;23.282;2024-01-30T03:26:33;6.43;;;4.73;;
6463;SDS011;3265;42.694;23.282;2024-01-30T03:32:03;6.77;;;4.53;;
6463;SDS011;3265;42.694;23.282;2024-01-30T03:34:50;7.57;;;4.60;;
6463;SDS011;3265;42.694;23.282;2024-01-30T03:40:30;7.43;;;4.83;;
6463;SDS011;3265;42.694;23.282;2024-01-30T03:43:13;6.50;;;4.07;;
6463;SDS011;3265;42.694;23.282;2024-01-30T03:45:55;7.67;;;4.67;;
6463;SDS011;3265;42.694;23.282;2024-01-30T03:48:22;7.63;;;4.43;;
6463;SDS011;3265;42.694;23.282;2024-01-30T03:50:53;8.10;;;4.40;;
6463;SDS011;3265;42.694;23.282;2024-01-30T04:04:23;6.47;;;4.18;;
6463;SDS011;3265;42.694;23.282;2024-01-30T04:07:09;8.20;;;4.40;;
6463;SDS011;3265;42.694;23.282;2024-01-30T04:10:06;7.93;;;4.50;;
6463;SDS011;3265;42.694;23.282;2024-01-30T04:12:48;8.80;;;5.00;;
6463;SDS011;3265;42.694;23.282;2024-01-30T04:18:13;9.13;;;4.30;;
6463;SDS011;3265;42.694;23.282;2024-01-30T04:21:05;7.10;;;4.07;;
6463;SDS011;3265;42.694;23.282;2024-01-30T04:23:50;8.23;;;4.47;;
6463;SDS011;3265;42.694;23.282;2024-01-30T04:26:47;6.27;;;4.00;;
6463;SDS011;3265;42.694;23.282;2024-01-30T04:29:30;6.87;;;4.00;;
6463;SDS011;3265;42.694;23.282;2024-01-30T04:32:00;5.83;;;4.03;;
6463;SDS011;3265;42.694;23.282;2024-01-30T04:34:32;6.97;;;4.00;;
6463;SDS011;3265;42.694;23.282;2024-01-30T04:37:02;5.73;;;3.97;;
6463;SDS011;3265;42.694;23.282;2024-01-30T04:39:29;6.43;;;4.07;;
6463;SDS011;3265;42.694;23.282;2024-01-30T04:42:07;7.67;;;4.07;;
6463;SDS011;3265;42.694;23.282;2024-01-30T04:44:51;7.63;;;4.40;;
6463;SDS011;3265;42.694;23.282;2024-01-30T04:47:35;7.80;;;4.50;;
6463;SDS011;3265;42.694;23.282;2024-01-30T04:50:29;8.70;;;4.43;;
6463;SDS011;3265;42.694;23.282;2024-01-30T04:53:24;6.73;;;4.43;;
6463;SDS011;3265;42.694;23.282;2024-01-30T04:56:17;8.30;;;4.40;;
6463;SDS011;3265;42.694;23.282;2024-01-30T04:58:50;6.03;;;4.20;;
6463;SDS011;3265;42.694;23.282;2024-01-30T05:04:10;8.17;;;4.20;;
6463;SDS011;3265;42.694;23.282;2024-01-30T05:07:05;6.67;;;4.10;;
6463;SDS011;3265;42.694;23.282;2024-01-30T05:09:44;6.50;;;4.13;;
6463;SDS011;3265;42.694;23.282;2024-01-30T05:14:56;7.53;;;4.83;;
6463;SDS011;3265;42.694;23.282;2024-01-30T05:17:29;9.43;;;4.70;;
6463;SDS011;3265;42.694;23.282;2024-01-30T05:26:15;8.50;;;5.27;;
6463;SDS011;3265;42.694;23.282;2024-01-30T05:50:12;17.73;;;6.60;;
6463;SDS011;3265;42.694;23.282;2024-01-30T06:03:34;10.17;;;5.13;;
6463;SDS011;3265;42.694;23.282;2024-01-30T06:06:39;7.73;;;4.80;;
6463;SDS011;3265;42.694;23.282;2024-01-30T06:09:54;9.87;;;4.97;;
6463;SDS011;3265;42.694;23.282;2024-01-30T06:12:33;8.17;;;4.83;;
6463;SDS011;3265;42.694;23.282;2024-01-30T06:18:19;9.67;;;4.93;;
6463;SDS011;3265;42.694;23.282;2024-01-30T06:20:59;15.63;;;5.50;;
6463;SDS011;3265;42.694;23.282;2024-01-30T06:23:37;14.03;;;4.47;;
6463;SDS011;3265;42.694;23.282;2024-01-30T06:26:44;13.43;;;6.07;;
6463;SDS011;3265;42.694;23.282;2024-01-30T06:28:55;11.63;;;5.03;;
6463;SDS011;3265;42.694;23.282;2024-01-30T06:31:39;8.83;;;5.23;;
6463;SDS011;3265;42.694;23.282;2024-01-30T06:34:07;16.63;;;4.33;;
6463;SDS011;3265;42.694;23.282;2024-01-30T06:39:14;10.93;;;5.18;;
6463;SDS011;3265;42.694;23.282;2024-01-30T06:41:41;10.27;;;4.70;;
6463;SDS011;3265;42.694;23.282;2024-01-30T06:44:13;10.47;;;5.10;;
6463;SDS011;3265;42.694;23.282;2024-01-30T06:46:54;6.80;;;4.43;;
6463;SDS011;3265;42.694;23.282;2024-01-30T06:49:33;46.57;;;14.50;;
6463;SDS011;3265;42.694;23.282;2024-01-30T07:04:36;10.03;;;5.43;;
6463;SDS011;3265;42.694;23.282;2024-01-30T07:10:20;10.97;;;5.70;;
6463;SDS011;3265;42.694;23.282;2024-01-30T07:12:48;13.27;;;4.93;;
6463;SDS011;3265;42.694;23.282;2024-01-30T07:15:21;8.97;;;5.23;;
6463;SDS011;3265;42.694;23.282;2024-01-30T07:17:48;12.27;;;4.90;;
6463;SDS011;3265;42.694;23.282;2024-01-30T07:20:15;15.33;;;5.03;;
6463;SDS011;3265;42.694;23.282;2024-01-30T07:22:45;10.47;;;5.10;;
6463;SDS011;3265;42.694;23.282;2024-01-30T07:25:20;11.30;;;5.07;;
6463;SDS011;3265;42.694;23.282;2024-01-30T07:28:04;8.67;;;4.90;;
6463;SDS011;3265;42.694;23.282;2024-01-30T07:30:35;11.83;;;4.60;;
6463;SDS011;3265;42.694;23.282;2024-01-30T07:33:08;10.90;;;5.50;;
6463;SDS011;3265;42.694;23.282;2024-01-30T07:35:49;13.63;;;5.27;;
6463;SDS011;3265;42.694;23.282;2024-01-30T07:38:16;7.10;;;4.37;;
6463;SDS011;3265;42.694;23.282;2024-01-30T07:40:43;6.60;;;4.30;;
6463;SDS011;3265;42.694;23.282;2024-01-30T07:46:19;11.60;;;4.77;;
6463;SDS011;3265;42.694;23.282;2024-01-30T07:48:52;7.67;;;4.30;;
6463;SDS011;3265;42.694;23.282;2024-01-30T07:51:28;8.50;;;4.17;;
6463;SDS011;3265;42.694;23.282;2024-01-30T07:54:01;7.20;;;4.33;;
6463;SDS011;3265;42.694;23.282;2024-01-30T07:56:41;8.83;;;4.10;;
6463;SDS011;3265;42.694;23.282;2024-01-30T07:59:29;13.47;;;4.40;;
6463;SDS011;3265;42.694;23.282;2024-01-30T08:01:57;10.00;;;4.63;;
6463;SDS011;3265;42.694;23.282;2024-01-30T08:04:27;8.77;;;5.00;;
6463;SDS011;3265;42.694;23.282;2024-01-30T08:07:05;10.20;;;5.17;;
6463;SDS011;3265;42.694;23.282;2024-01-30T08:09:45;10.70;;;5.03;;
6463;SDS011;3265;42.694;23.282;2024-01-30T08:12:12;15.53;;;5.27;;
6463;SDS011;3265;42.694;23.282;2024-01-30T08:15:11;8.93;;;4.80;;
6463;SDS011;3265;42.694;23.282;2024-01-30T08:23:49;9.10;;;5.10;;
6463;SDS011;3265;42.694;23.282;2024-01-30T08:26:34;10.70;;;5.00;;
6463;SDS011;3265;42.694;23.282;2024-01-30T08:34:46;6.53;;;4.70;;
6463;SDS011;3265;42.694;23.282;2024-01-30T08:37:23;7.77;;;4.77;;
6463;SDS011;3265;42.694;23.282;2024-01-30T08:40:02;7.57;;;4.93;;
6463;SDS011;3265;42.694;23.282;2024-01-30T08:42:29;8.27;;;5.27;;
6463;SDS011;3265;42.694;23.282;2024-01-30T08:44:56;8.77;;;5.07;;
6463;SDS011;3265;42.694;23.282;2024-01-30T08:50:12;11.80;;;5.17;;
6463;SDS011;3265;42.694;23.282;2024-01-30T08:52:43;8.40;;;5.10;;
6463;SDS011;3265;42.694;23.282;2024-01-30T08:55:10;11.53;;;5.30;;
6463;SDS011;3265;42.694;23.282;2024-01-30T08:57:44;9.10;;;5.30;;
6463;SDS011;3265;42.694;23.282;2024-01-30T09:00:11;9.27;;;5.97;;
6463;SDS011;3265;42.694;23.282;2024-01-30T09:02:46;8.63;;;5.43;;
6463;SDS011;3265;42.694;23.282;2024-01-30T09:05:14;13.03;;;5.50;;
6463;SDS011;3265;42.694;23.282;2024-01-30T09:07:42;15.43;;;5.60;;
6463;SDS011;3265;42.694;23.282;2024-01-30T09:10:09;6.90;;;4.50;;
6463;SDS011;3265;42.694;23.282;2024-01-30T09:12:36;8.63;;;4.93;;
6463;SDS011;3265;42.694;23.282;2024-01-30T09:15:03;8.30;;;4.73;;
6463;SDS011;3265;42.694;23.282;2024-01-30T09:17:31;7.33;;;4.77;;
6463;SDS011;3265;42.694;23.282;2024-01-30T09:20:04;9.30;;;4.73;;
6463;SDS011;3265;42.694;23.282;2024-01-30T09:22:39;6.13;;;4.47;;
6463;SDS011;3265;42.694;23.282;2024-01-30T09:25:17;6.43;;;4.37;;
6463;SDS011;3265;42.694;23.282;2024-01-30T09:28:01;9.53;;;4.80;;
6463;SDS011;3265;42.694;23.282;2024-01-30T09:30:28;10.13;;;5.30;;
6463;SDS011;3265;42.694;23.282;2024-01-30T09:33:06;6.70;;;4.43;;
6463;SDS011;3265;42.694;23.282;2024-01-30T09:36:10;11.37;;;6.47;;
6463;SDS011;3265;42.694;23.282;2024-01-30T09:38:54;7.40;;;4.40;;
6463;SDS011;3265;42.694;23.282;2024-01-30T09:44:14;7.17;;;4.63;;
6463;SDS011;3265;42.694;23.282;2024-01-30T09:46:52;7.60;;;4.53;;
6463;SDS011;3265;42.694;23.282;2024-01-30T09:49:33;8.57;;;3.93;;
6463;SDS011;3265;42.694;23.282;2024-01-30T09:52:01;7.07;;;4.40;;
6463;SDS011;3265;42.694;23.282;2024-01-30T09:54:29;7.37;;;4.00;;
6463;SDS011;3265;42.694;23.282;2024-01-30T09:57:15;6.43;;;4.07;;
6463;SDS011;3265;42.694;23.282;2024-01-30T09:59:48;5.97;;;3.90;;
6463;SDS011;3265;42.694;23.282;2024-01-30T10:02:39;10.00;;;3.17;;
6463;SDS011;3265;42.694;23.282;2024-01-30T10:05:18;5.90;;;3.97;;
6463;SDS011;3265;42.694;23.282;2024-01-30T10:07:59;4.43;;;3.27;;
6463;SDS011;3265;42.694;23.282;2024-01-30T10:10:37;5.00;;;3.93;;
6463;SDS011;3265;42.694;23.282;2024-01-30T10:13:29;4.87;;;3.67;;
6463;SDS011;3265;42.694;23.282;2024-01-30T10:16:09;7.37;;;4.20;;
6463;SDS011;3265;42.694;23.282;2024-01-30T10:18:36;7.83;;;3.60;;
6463;SDS011;3265;42.694;23.282;2024-01-30T10:21:22;5.33;;;3.60;;
6463;SDS011;3265;42.694;23.282;2024-01-30T10:23:49;6.70;;;4.20;;
6463;SDS011;3265;42.694;23.282;2024-01-30T10:26:17;5.10;;;3.60;;
6463;SDS011;3265;42.694;23.282;2024-01-30T10:28:54;4.70;;;3.77;;
6463;SDS011;3265;42.694;23.282;2024-01-30T10:31:31;5.00;;;3.80;;
6463;SDS011;3265;42.694;23.282;2024-01-30T10:34:11;5.07;;;3.40;;
6463;SDS011;3265;42.694;23.282;2024-01-30T10:36:48;5.03;;;3.20;;
6463;SDS011;3265;42.694;23.282;2024-01-30T10:39:17;4.50;;;3.60;;
6463;SDS011;3265;42.694;23.282;2024-01-30T10:41:44;5.07;;;3.60;;
6463;SDS011;3265;42.694;23.282;2024-01-30T10:44:16;4.37;;;3.30;;
6463;SDS011;3265;42.694;23.282;2024-01-30T10:46:56;4.60;;;3.47;;
6463;SDS011;3265;42.694;23.282;2024-01-30T10:49:37;10.73;;;4.17;;
6463;SDS011;3265;42.694;23.282;2024-01-30T11:25:13;4.80;;;3.23;;
6463;SDS011;3265;42.694;23.282;2024-01-30T11:27:44;5.00;;;3.47;;
6463;SDS011;3265;42.694;23.282;2024-01-30T11:30:28;5.10;;;3.53;;
6463;SDS011;3265;42.694;23.282;2024-01-30T11:33:02;4.43;;;3.60;;
6463;SDS011;3265;42.694;23.282;2024-01-30T11:38:38;7.13;;;3.30;;
6463;SDS011;3265;42.694;23.282;2024-01-30T11:41:09;5.30;;;3.80;;
6463;SDS011;3265;42.694;23.282;2024-01-30T12:11:45;5.23;;;3.87;;
6463;SDS011;3265;42.694;23.282;2024-01-30T12:26:01;5.87;;;4.00;;
6463;SDS011;3265;42.694;23.282;2024-01-30T12:28:46;5.07;;;3.60;;
6463;SDS011;3265;42.694;23.282;2024-01-30T12:31:31;4.90;;;3.70;;
6463;SDS011;3265;42.694;23.282;2024-01-30T12:34:25;4.83;;;3.60;;
6463;SDS011;3265;42.694;23.282;2024-01-30T12:36:52;6.80;;;3.90;;
6463;SDS011;3265;42.694;23.282;2024-01-30T12:39:19;5.87;;;4.47;;
6463;SDS011;3265;42.694;23.282;2024-01-30T12:41:47;11.00;;;7.93;;
6463;SDS011;3265;42.694;23.282;2024-01-30T12:47:14;4.83;;;3.67;;
6463;SDS011;3265;42.694;23.282;2024-01-30T12:52:07;5.47;;;3.97;;
6463;SDS011;3265;42.694;23.282;2024-01-30T12:54:37;5.47;;;4.00;;
6463;SDS011;3265;42.694;23.282;2024-01-30T12:57:10;5.90;;;4.00;;
6463;SDS011;3265;42.694;23.282;2024-01-30T12:59:51;7.97;;;5.40;;
6463;SDS011;3265;42.694;23.282;2024-01-30T13:02:26;5.17;;;4.23;;
6463;SDS011;3265;42.694;23.282;2024-01-30T13:05:00;6.10;;;4.53;;
6463;SDS011;3265;42.694;23.282;2024-01-30T13:07:39;5.33;;;4.10;;
6463;SDS011;3265;42.694;23.282;2024-01-30T13:10:06;7.50;;;4.77;;
6463;SDS011;3265;42.694;23.282;2024-01-30T13:12:33;6.30;;;4.63;;
6463;SDS011;3265;42.694;23.282;2024-01-30T13:15:02;6.57;;;4.50;;
6463;SDS011;3265;42.694;23.282;2024-01-30T13:17:37;9.77;;;4.70;;
6463;SDS011;3265;42.694;23.282;2024-01-30T13:20:05;11.30;;;4.57;;
6463;SDS011;3265;42.694;23.282;2024-01-30T13:22:43;6.27;;;4.53;;
6463;SDS011;3265;42.694;23.282;2024-01-30T13:25:19;7.73;;;5.10;;
6463;SDS011;3265;42.694;23.282;2024-01-30T13:28:23;7.50;;;4.20;;
6463;SDS011;3265;42.694;23.282;2024-01-30T13:31:05;7.93;;;4.83;;
6463;SDS011;3265;42.694;23.282;2024-01-30T13:33:46;6.70;;;4.40;;
6463;SDS011;3265;42.694;23.282;2024-01-30T13:36:14;6.80;;;4.53;;
6463;SDS011;3265;42.694;23.282;2024-01-30T13:38:55;7.47;;;4.03;;
6463;SDS011;3265;42.694;23.282;2024-01-30T13:41:23;7.20;;;4.67;;
6463;SDS011;3265;42.694;23.282;2024-01-30T13:43:50;6.47;;;4.50;;
6463;SDS011;3265;42.694;23.282;2024-01-30T13:46:34;9.20;;;5.47;;
6463;SDS011;3265;42.694;23.282;2024-01-30T13:56:08;10.07;;;5.57;;
6463;SDS011;3265;42.694;23.282;2024-01-30T13:59:07;9.30;;;5.35;;
6463;SDS011;3265;42.694;23.282;2024-01-30T14:10:09;10.73;;;6.00;;
6463;SDS011;3265;42.694;23.282;2024-01-30T14:18:09;7.33;;;5.07;;
6463;SDS011;3265;42.694;23.282;2024-01-30T14:30:11;8.77;;;5.33;;
6463;SDS011;3265;42.694;23.282;2024-01-30T14:35:06;7.90;;;5.15;;
6463;SDS011;3265;42.694;23.282;2024-01-30T14:37:34;9.43;;;5.50;;
6463;SDS011;3265;42.694;23.282;2024-01-30T14:40:00;9.73;;;5.17;;
6463;SDS011;3265;42.694;23.282;2024-01-30T14:42:32;8.20;;;5.83;;
6463;SDS011;3265;42.694;23.282;2024-01-30T14:45:18;8.97;;;5.40;;
6463;SDS011;3265;42.694;23.282;2024-01-30T15:10:10;11.50;;;6.13;;
6463;SDS011;3265;42.694;23.282;2024-01-30T15:12:52;9.93;;;6.10;;
6463;SDS011;3265;42.694;23.282;2024-01-30T15:15:19;10.63;;;5.80;;
6463;SDS011;3265;42.694;23.282;2024-01-30T15:17:47;11.20;;;6.77;;
6463;SDS011;3265;42.694;23.282;2024-01-30T15:34:59;15.37;;;6.27;;
6463;SDS011;3265;42.694;23.282;2024-01-30T15:43:19;8.60;;;5.53;;
6463;SDS011;3265;42.694;23.282;2024-01-30T15:45:54;18.17;;;6.37;;
6463;SDS011;3265;42.694;23.282;2024-01-30T15:53:40;10.07;;;6.23;;
6463;SDS011;3265;42.694;23.282;2024-01-30T15:56:10;15.50;;;7.23;;
6463;SDS011;3265;42.694;23.282;2024-01-30T15:58:38;13.17;;;7.10;;
6463;SDS011;3265;42.694;23.282;2024-01-30T16:01:08;15.33;;;7.33;;
6463;SDS011;3265;42.694;23.282;2024-01-30T16:06:21;13.10;;;7.43;;
6463;SDS011;3265;42.694;23.282;2024-01-30T16:08:56;11.97;;;7.50;;
6463;SDS011;3265;42.694;23.282;2024-01-30T16:11:23;12.57;;;7.37;;
6463;SDS011;3265;42.694;23.282;2024-01-30T16:13:50;17.83;;;8.00;;
6463;SDS011;3265;42.694;23.282;2024-01-30T16:16:23;14.10;;;7.33;;
6463;SDS011;3265;42.694;23.282;2024-01-30T16:18:50;11.90;;;6.73;;
6463;SDS011;3265;42.694;23.282;2024-01-30T16:21:27;14.17;;;7.63;;
6463;SDS011;3265;42.694;23.282;2024-01-30T16:24:04;15.40;;;8.10;;
6463;SDS011;3265;42.694;23.282;2024-01-30T16:26:31;17.43;;;8.73;;
6463;SDS011;3265;42.694;23.282;2024-01-30T16:29:09;18.80;;;9.07;;
6463;SDS011;3265;42.694;23.282;2024-01-30T16:34:40;16.57;;;7.77;;
6463;SDS011;3265;42.694;23.282;2024-01-30T16:37:11;10.40;;;6.83;;
6463;SDS011;3265;42.694;23.282;2024-01-30T16:39:41;13.47;;;7.77;;
6463;SDS011;3265;42.694;23.282;2024-01-30T16:42:08;15.77;;;7.60;;
6463;SDS011;3265;42.694;23.282;2024-01-30T16:44:46;17.17;;;8.03;;
6463;SDS011;3265;42.694;23.282;2024-01-30T16:47:13;16.70;;;7.90;;
6463;SDS011;3265;42.694;23.282;2024-01-30T16:49:43;13.50;;;7.83;;
6463;SDS011;3265;42.694;23.282;2024-01-30T16:55:17;13.07;;;7.80;;
6463;SDS011;3265;42.694;23.282;2024-01-30T16:57:49;13.77;;;7.93;;
6463;SDS011;3265;42.694;23.282;2024-01-30T17:00:16;14.67;;;7.43;;
6463;SDS011;3265;42.694;23.282;2024-01-30T17:05:34;12.43;;;7.87;;
6463;SDS011;3265;42.694;23.282;2024-01-30T17:08:09;14.90;;;8.40;;
6463;SDS011;3265;42.694;23.282;2024-01-30T17:10:46;11.47;;;7.63;;
6463;SDS011;3265;42.694;23.282;2024-01-30T17:13:16;12.63;;;7.50;;
6463;SDS011;3265;42.694;23.282;2024-01-30T17:18:36;17.17;;;8.90;;
6463;SDS011;3265;42.694;23.282;2024-01-30T17:21:15;14.77;;;8.40;;
6463;SDS011;3265;42.694;23.282;2024-01-30T17:24:17;13.53;;;7.33;;
6463;SDS011;3265;42.694;23.282;2024-01-30T17:27:04;12.57;;;7.37;;
6463;SDS011;3265;42.694;23.282;2024-01-30T17:32:53;18.43;;;8.60;;
6463;SDS011;3265;42.694;23.282;2024-01-30T17:35:26;14.17;;;7.60;;
6463;SDS011;3265;42.694;23.282;2024-01-30T17:37:52;13.50;;;7.70;;
6463;SDS011;3265;42.694;23.282;2024-01-30T17:40:21;15.77;;;7.67;;
6463;SDS011;3265;42.694;23.282;2024-01-30T17:42:47;14.73;;;7.90;;
6463;SDS011;3265;42.694;23.282;2024-01-30T17:45:14;12.00;;;7.00;;
6463;SDS011;3265;42.694;23.282;2024-01-30T17:47:55;13.67;;;8.07;;
6463;SDS011;3265;42.694;23.282;2024-01-30T17:50:22;14.33;;;7.97;;
6463;SDS011;3265;42.694;23.282;2024-01-30T17:52:49;14.03;;;7.43;;
6463;SDS011;3265;42.694;23.282;2024-01-30T17:55:18;13.23;;;7.63;;
6463;SDS011;3265;42.694;23.282;2024-01-30T17:57:58;17.17;;;7.57;;
6463;SDS011;3265;42.694;23.282;2024-01-30T18:00:28;15.43;;;7.80;;
6463;SDS011;3265;42.694;23.282;2024-01-30T18:02:55;12.57;;;7.37;;
6463;SDS011;3265;42.694;23.282;2024-01-30T18:05:30;18.30;;;7.63;;
6463;SDS011;3265;42.694;23.282;2024-01-30T18:07:57;20.50;;;8.07;;
6463;SDS011;3265;42.694;23.282;2024-01-30T18:10:25;12.40;;;7.30;;
6463;SDS011;3265;42.694;23.282;2024-01-30T18:12:52;13.53;;;7.20;;
6463;SDS011;3265;42.694;23.282;2024-01-30T18:15:27;16.67;;;8.20;;
6463;SDS011;3265;42.694;23.282;2024-01-30T18:17:54;13.20;;;7.97;;
6463;SDS011;3265;42.694;23.282;2024-01-30T18:20:19;12.40;;;7.70;;
6463;SDS011;3265;42.694;23.282;2024-01-30T18:22:46;16.03;;;8.30;;
6463;SDS011;3265;42.694;23.282;2024-01-30T18:25:29;15.33;;;8.07;;
6463;SDS011;3265;42.694;23.282;2024-01-30T18:27:56;19.40;;;8.53;;
6463;SDS011;3265;42.694;23.282;2024-01-30T18:30:23;14.13;;;8.07;;
6463;SDS011;3265;42.694;23.282;2024-01-30T18:38:38;19.97;;;9.37;;
6463;SDS011;3265;42.694;23.282;2024-01-30T18:41:06;20.97;;;9.90;;
6463;SDS011;3265;42.694;23.282;2024-01-30T18:43:33;17.40;;;9.73;;
6463;SDS011;3265;42.694;23.282;2024-01-30T18:46:13;21.07;;;9.67;;
6463;SDS011;3265;42.694;23.282;2024-01-30T18:48:54;23.10;;;10.13;;
6463;SDS011;3265;42.694;23.282;2024-01-30T18:51:29;30.00;;;11.03;;
6463;SDS011;3265;42.694;23.282;2024-01-30T18:54:05;26.57;;;11.97;;
6463;SDS011;3265;42.694;23.282;2024-01-30T18:56:50;21.77;;;10.70;;
6463;SDS011;3265;42.694;23.282;2024-01-30T19:00:14;24.23;;;11.80;;
6463;SDS011;3265;42.694;23.282;2024-01-30T19:02:59;22.73;;;11.10;;
6463;SDS011;3265;42.694;23.282;2024-01-30T20:15:10;96.57;;;42.97;;
6463;SDS011;3265;42.694;23.282;2024-01-30T20:20:16;81.20;;;36.50;;
6463;SDS011;3265;42.694;23.282;2024-01-30T20:23:00;96.17;;;37.60;;
6463;SDS011;3265;42.694;23.282;2024-01-30T20:25:41;86.40;;;37.20;;
6463;SDS011;3265;42.694;23.282;2024-01-30T20:28:15;85.97;;;34.60;;
6463;SDS011;3265;42.694;23.282;2024-01-30T20:34:12;65.30;;;30.20;;
6463;SDS011;3265;42.694;23.282;2024-01-30T20:36:53;63.03;;;29.73;;
6463;SDS011;3265;42.694;23.282;2024-01-30T20:39:34;54.30;;;25.50;;
6463;SDS011;3265;42.694;23.282;2024-01-30T20:42:18;58.90;;;28.10;;
6463;SDS011;3265;42.694;23.282;2024-01-30T20:44:52;55.20;;;26.97;;
6463;SDS011;3265;42.694;23.282;2024-01-30T20:47:22;51.33;;;23.80;;
6463;SDS011;3265;42.694;23.282;2024-01-30T20:50:05;72.70;;;34.37;;
6463;SDS011;3265;42.694;23.282;2024-01-30T20:52:33;77.17;;;36.40;;
6463;SDS011;3265;42.694;23.282;2024-01-30T20:55:01;71.17;;;34.73;;
6463;SDS011;3265;42.694;23.282;2024-01-30T20:57:35;72.70;;;35.83;;
6463;SDS011;3265;42.694;23.282;2024-01-30T21:00:20;65.63;;;34.27;;
6463;SDS011;3265;42.694;23.282;2024-01-30T21:03:01;87.40;;;39.93;;
6463;SDS011;3265;42.694;23.282;2024-01-30T21:05:31;82.23;;;40.10;;
6463;SDS011;3265;42.694;23.282;2024-01-30T21:08:02;120.93;;;53.33;;
6463;SDS011;3265;42.694;23.282;2024-01-30T21:10:55;143.87;;;64.20;;
6463;SDS011;3265;42.694;23.282;2024-01-30T21:13:32;127.07;;;54.47;;
6463;SDS011;3265;42.694;23.282;2024-01-30T21:16:10;137.53;;;59.70;;
6463;SDS011;3265;42.694;23.282;2024-01-30T21:18:45;100.60;;;45.40;;
6463;SDS011;3265;42.694;23.282;2024-01-30T21:21:29;85.60;;;38.47;;
6463;SDS011;3265;42.694;23.282;2024-01-30T21:24:13;82.87;;;35.63;;
6463;SDS011;3265;42.694;23.282;2024-01-30T21:32:22;111.30;;;42.87;;
6463;SDS011;3265;42.694;23.282;2024-01-30T21:35:12;112.83;;;42.37;;
6463;SDS011;3265;42.694;23.282;2024-01-30T21:37:45;83.67;;;38.40;;
6463;SDS011;3265;42.694;23.282;2024-01-30T21:46:05;107.93;;;50.07;;
6463;SDS011;3265;42.694;23.282;2024-01-30T21:48:33;67.63;;;32.97;;
6463;SDS011;3265;42.694;23.282;2024-01-30T21:51:06;64.87;;;30.77;;
6463;SDS011;3265;42.694;23.282;2024-01-30T21:53:45;79.47;;;35.80;;
6463;SDS011;3265;42.694;23.282;2024-01-30T21:56:21;82.27;;;37.03;;
6463;SDS011;3265;42.694;23.282;2024-01-30T21:59:01;72.37;;;32.00;;
6463;SDS011;3265;42.694;23.282;2024-01-30T22:01:34;70.30;;;30.90;;
6463;SDS011;3265;42.694;23.282;2024-01-30T22:04:34;71.90;;;31.43;;
6463;SDS011;3265;42.694;23.282;2024-01-30T22:07:16;84.13;;;38.50;;
6463;SDS011;3265;42.694;23.282;2024-01-30T22:12:10;86.60;;;36.28;;
6463;SDS011;3265;42.694;23.282;2024-01-30T22:14:47;71.80;;;33.27;;
6463;SDS011;3265;42.694;23.282;2024-01-30T22:17:14;86.50;;;39.43;;
6463;SDS011;3265;42.694;23.282;2024-01-30T22:19:43;106.53;;;45.73;;
6463;SDS011;3265;42.694;23.282;2024-01-30T22:22:10;238.23;;;98.97;;
6463;SDS011;3265;42.694;23.282;2024-01-30T22:24:37;279.37;;;114.43;;
6463;SDS011;3265;42.694;23.282;2024-01-30T22:27:04;217.10;;;87.93;;
6463;SDS011;3265;42.694;23.282;2024-01-30T22:29:33;140.80;;;60.40;;
6463;SDS011;3265;42.694;23.282;2024-01-30T22:32:00;121.37;;;51.33;;
6463;SDS011;3265;42.694;23.282;2024-01-30T22:34:34;113.60;;;46.73;;
6463;SDS011;3265;42.694;23.282;2024-01-30T22:37:16;106.90;;;44.90;;
6463;SDS011;3265;42.694;23.282;2024-01-30T22:39:43;114.50;;;51.67;;
6463;SDS011;3265;42.694;23.282;2024-01-30T22:42:24;123.73;;;54.77;;
6463;SDS011;3265;42.694;23.282;2024-01-30T22:44:59;117.73;;;51.97;;
6463;SDS011;3265;42.694;23.282;2024-01-30T22:47:26;97.27;;;41.43;;
6463;SDS011;3265;42.694;23.282;2024-01-30T22:50:09;107.83;;;46.90;;
6463;SDS011;3265;42.694;23.282;2024-01-30T22:52:36;123.10;;;54.90;;
6463;SDS011;3265;42.694;23.282;2024-01-30T22:55:11;121.40;;;52.90;;
6463;SDS011;3265;42.694;23.282;2024-01-30T22:57:58;115.40;;;53.20;;